createdAt,value
2019-02-15T00:00:43.350Z,99.90
2019-02-15T00:01:50.575Z,99.90
2019-02-15T00:02:55.900Z,99.90
2019-02-15T00:04:02.237Z,99.90
2019-02-15T00:05:07.678Z,99.90
2019-02-15T00:06:14.202Z,99.90
2019-02-15T00:07:19.460Z,99.90
2019-02-15T00:08:24.793Z,99.90
2019-02-15T00:09:30.045Z,99.90
2019-02-15T00:10:35.351Z,99.90
2019-02-15T00:11:41.329Z,99.90
2019-02-15T00:12:46.657Z,99.90
2019-02-15T00:13:51.964Z,99.90
2019-02-15T00:14:57.295Z,99.90
2019-02-15T00:16:04.911Z,99.90
2019-02-15T00:17:10.281Z,99.90
2019-02-15T00:18:32.644Z,99.90
2019-02-15T00:19:43.847Z,99.90
2019-02-15T00:20:59.532Z,99.90
2019-02-15T00:22:07.281Z,99.90
2019-02-15T00:23:12.699Z,99.90
2019-02-15T00:24:18.030Z,99.90
2019-02-15T00:25:23.419Z,99.90
2019-02-15T00:26:28.704Z,99.90
2019-02-15T00:27:33.993Z,99.90
2019-02-15T00:28:39.206Z,99.90
2019-02-15T00:29:44.943Z,99.90
2019-02-15T00:30:50.276Z,99.90
2019-02-15T00:31:55.705Z,99.90
2019-02-15T00:33:01.008Z,99.90
2019-02-15T00:34:06.458Z,99.90
2019-02-15T00:35:11.720Z,99.90
2019-02-15T00:36:17.209Z,99.90
2019-02-15T00:37:22.477Z,99.90
2019-02-15T00:38:27.729Z,99.90
2019-02-15T00:39:33.011Z,99.90
2019-02-15T00:40:38.292Z,99.90
2019-02-15T00:41:43.597Z,99.90
2019-02-15T00:42:48.906Z,99.90
2019-02-15T00:43:54.202Z,99.90
2019-02-15T00:44:59.518Z,99.90
2019-02-15T00:46:22.560Z,99.90
2019-02-15T00:47:38.255Z,99.90
2019-02-15T00:48:43.549Z,99.90
2019-02-15T00:50:07.332Z,99.90
2019-02-15T00:51:30.151Z,99.90
2019-02-15T00:52:47.349Z,99.90
2019-02-15T00:54:23.465Z,99.90
2019-02-15T00:55:41.892Z,99.90
2019-02-15T00:57:09.190Z,99.90
2019-02-15T00:58:19.649Z,99.90
2019-02-15T00:59:47.178Z,99.90
2019-02-15T01:01:29.877Z,99.90
2019-02-15T01:02:54.160Z,99.90
2019-02-15T01:04:18.410Z,99.90
2019-02-15T01:05:48.406Z,99.90
2019-02-15T01:07:00.500Z,99.90
2019-02-15T01:08:27.733Z,99.90
2019-02-15T01:09:54.748Z,99.90
2019-02-15T01:11:14.072Z,99.90
2019-02-15T01:12:34.490Z,99.90
2019-02-15T01:13:39.829Z,99.90
2019-02-15T01:14:45.182Z,99.90
2019-02-15T01:15:50.525Z,99.90
2019-02-15T01:16:55.970Z,99.90
2019-02-15T01:18:02.169Z,99.90
2019-02-15T01:19:09.281Z,99.90
2019-02-15T01:20:14.612Z,99.90
2019-02-15T01:21:19.920Z,99.90
2019-02-15T01:22:25.242Z,99.90
2019-02-15T01:23:30.576Z,99.90
2019-02-15T01:24:35.886Z,99.90
2019-02-15T01:26:00.696Z,99.90
2019-02-15T01:27:20.940Z,99.90
2019-02-15T01:28:48.066Z,99.90
2019-02-15T01:30:12.321Z,99.90
2019-02-15T01:31:39.681Z,99.90
2019-02-15T01:33:10.113Z,99.90
2019-02-15T01:34:32.873Z,99.90
2019-02-15T01:35:59.893Z,99.90
2019-02-15T01:37:12.976Z,99.90
2019-02-15T01:38:34.511Z,99.90
2019-02-15T01:39:58.753Z,99.90
2019-02-15T01:41:29.179Z,99.90
2019-02-15T01:42:41.187Z,99.90
2019-02-15T01:44:00.778Z,99.90
2019-02-15T01:45:25.418Z,99.90
2019-02-15T01:46:38.564Z,99.90
2019-02-15T01:47:46.729Z,99.90
2019-02-15T01:48:52.081Z,99.90
2019-02-15T01:49:57.528Z,99.90
2019-02-15T01:51:03.995Z,99.90
2019-02-15T01:52:12.156Z,99.90
2019-02-15T01:53:17.499Z,99.90
2019-02-15T01:54:22.781Z,99.90
2019-02-15T01:55:28.096Z,99.90
2019-02-15T01:56:33.470Z,99.90
2019-02-15T01:57:38.654Z,99.90
2019-02-15T01:58:43.863Z,99.90
2019-02-15T01:59:49.609Z,99.90
2019-02-15T02:00:54.913Z,99.90
2019-02-15T02:02:00.159Z,99.90
2019-02-15T02:03:05.427Z,99.90
2019-02-15T02:04:10.840Z,99.90
2019-02-15T02:05:16.187Z,99.90
2019-02-15T02:06:21.451Z,99.90
2019-02-15T02:07:27.001Z,99.90
2019-02-15T02:08:32.884Z,99.90
2019-02-15T02:09:39.196Z,99.90
2019-02-15T02:10:44.666Z,99.90
2019-02-15T02:11:50.083Z,99.90
2019-02-15T02:12:55.426Z,99.90
2019-02-15T02:14:00.835Z,99.90
2019-02-15T02:15:06.966Z,99.90
2019-02-15T02:16:15.108Z,99.90
2019-02-15T02:17:20.496Z,99.90
2019-02-15T02:18:25.769Z,99.90
2019-02-15T02:19:31.108Z,99.90
2019-02-15T02:20:36.427Z,99.90
2019-02-15T02:21:41.808Z,99.90
2019-02-15T02:22:47.055Z,99.90
2019-02-15T02:23:52.734Z,99.90
2019-02-15T02:24:58.019Z,99.90
2019-02-15T02:26:03.400Z,99.90
2019-02-15T02:27:08.728Z,99.90
2019-02-15T02:28:14.085Z,99.90
2019-02-15T02:29:19.447Z,99.90
2019-02-15T02:30:24.810Z,99.90
2019-02-15T02:31:30.282Z,99.90
2019-02-15T02:32:35.615Z,99.90
2019-02-15T02:33:41.003Z,99.90
2019-02-15T02:34:46.539Z,99.90
2019-02-15T02:35:52.251Z,99.90
2019-02-15T02:36:57.692Z,99.90
2019-02-15T02:38:02.993Z,99.90
2019-02-15T02:39:08.382Z,99.90
2019-02-15T02:40:13.939Z,99.90
2019-02-15T02:41:19.337Z,99.90
2019-02-15T02:42:25.797Z,99.90
2019-02-15T02:43:31.099Z,99.90
2019-02-15T02:44:36.437Z,99.90
2019-02-15T02:45:41.851Z,99.90
2019-02-15T02:46:47.203Z,99.90
2019-02-15T02:47:52.459Z,99.90
2019-02-15T02:48:57.878Z,99.90
2019-02-15T02:50:03.333Z,99.90
2019-02-15T02:51:08.689Z,99.90
2019-02-15T02:52:14.117Z,99.90
2019-02-15T02:53:19.548Z,99.90
2019-02-15T02:54:24.836Z,99.90
2019-02-15T02:55:30.189Z,99.90
2019-02-15T02:56:35.488Z,99.90
2019-02-15T02:57:41.095Z,99.90
2019-02-15T02:58:46.395Z,99.90
2019-02-15T02:59:51.685Z,99.90
2019-02-15T03:00:57.322Z,99.90
2019-02-15T03:02:02.851Z,99.90
2019-02-15T03:03:08.599Z,99.90
2019-02-15T03:04:13.900Z,99.90
2019-02-15T03:05:19.232Z,99.90
2019-02-15T03:06:24.555Z,99.90
2019-02-15T03:07:29.958Z,99.90
2019-02-15T03:08:35.301Z,99.90
2019-02-15T03:09:40.637Z,99.90
2019-02-15T03:10:46.703Z,99.90
2019-02-15T03:11:52.115Z,99.90
2019-02-15T03:12:57.579Z,99.90
2019-02-15T03:14:11.156Z,99.90
2019-02-15T03:15:09.832Z,99.90
2019-02-15T03:16:15.113Z,99.90
2019-02-15T03:17:22.034Z,99.90
2019-02-15T03:18:27.381Z,99.90
2019-02-15T03:19:33.688Z,99.90
2019-02-15T03:20:39.001Z,99.90
2019-02-15T03:21:44.274Z,99.90
2019-02-15T03:22:49.580Z,99.90
2019-02-15T03:23:54.965Z,99.90
2019-02-15T03:25:00.370Z,99.90
2019-02-15T03:26:05.764Z,99.90
2019-02-15T03:27:11.020Z,99.90
2019-02-15T03:28:16.319Z,99.90
2019-02-15T03:29:21.653Z,99.90
2019-02-15T03:30:27.009Z,99.90
2019-02-15T03:31:32.280Z,99.90
2019-02-15T03:32:37.515Z,99.90
2019-02-15T03:33:42.847Z,99.90
2019-02-15T03:34:48.285Z,99.90
2019-02-15T03:35:59.064Z,99.90
2019-02-15T03:37:22.331Z,99.90
2019-02-15T03:38:52.388Z,99.90
2019-02-15T03:40:20.467Z,99.90
2019-02-15T03:41:26.989Z,99.90
2019-02-15T03:42:32.240Z,99.90
2019-02-15T03:43:37.536Z,99.90
2019-02-15T03:44:42.721Z,99.90
2019-02-15T03:45:48.387Z,99.90
2019-02-15T03:46:53.613Z,99.90
2019-02-15T03:47:59.422Z,99.90
2019-02-15T03:49:04.636Z,99.90
2019-02-15T03:50:09.917Z,99.90
2019-02-15T03:51:15.143Z,99.90
2019-02-15T03:52:22.718Z,99.90
2019-02-15T03:53:27.992Z,99.90
2019-02-15T03:54:33.263Z,99.90
2019-02-15T03:55:38.536Z,99.90
2019-02-15T03:56:43.742Z,99.90
2019-02-15T03:57:49.017Z,99.90
2019-02-15T03:58:54.290Z,99.90
2019-02-15T04:00:01.179Z,99.90
2019-02-15T04:01:06.589Z,99.90
2019-02-15T04:02:11.860Z,99.90
2019-02-15T04:03:17.243Z,99.90
2019-02-15T04:04:22.664Z,99.90
2019-02-15T04:05:27.952Z,99.90
2019-02-15T04:06:33.170Z,99.90
2019-02-15T04:07:38.473Z,99.90
2019-02-15T04:08:43.796Z,99.90
2019-02-15T04:09:49.065Z,99.90
2019-02-15T04:10:55.294Z,99.90
2019-02-15T04:12:00.564Z,99.90
2019-02-15T04:13:05.851Z,99.90
2019-02-15T04:14:11.105Z,99.90
2019-02-15T04:15:16.391Z,99.90
2019-02-15T04:16:22.770Z,99.90
2019-02-15T04:17:28.023Z,99.90
2019-02-15T04:18:33.458Z,99.90
2019-02-15T04:19:38.740Z,99.90
2019-02-15T04:20:44.095Z,99.90
2019-02-15T04:21:49.345Z,99.90
2019-02-15T04:22:54.682Z,99.90
2019-02-15T04:24:00.048Z,99.90
2019-02-15T04:25:08.118Z,99.90
2019-02-15T04:26:13.475Z,99.90
2019-02-15T04:27:18.734Z,99.90
2019-02-15T04:28:26.713Z,99.90
2019-02-15T04:29:32.088Z,99.90
2019-02-15T04:30:37.385Z,99.90
2019-02-15T04:31:42.740Z,99.90
2019-02-15T04:32:48.069Z,99.90
2019-02-15T04:33:53.356Z,99.90
2019-02-15T04:34:58.692Z,99.90
2019-02-15T04:36:04.040Z,99.90
2019-02-15T04:37:09.323Z,99.90
2019-02-15T04:38:14.572Z,99.90
2019-02-15T04:39:19.912Z,99.90
2019-02-15T04:40:25.292Z,99.90
2019-02-15T04:41:30.585Z,99.90
2019-02-15T04:42:35.901Z,99.90
2019-02-15T04:43:41.382Z,99.90
2019-02-15T04:44:46.665Z,99.90
2019-02-15T04:46:11.044Z,99.90
2019-02-15T04:47:16.386Z,99.90
2019-02-15T04:48:21.726Z,99.90
2019-02-15T04:49:27.075Z,99.90
2019-02-15T04:50:32.396Z,99.90
2019-02-15T04:51:37.607Z,99.90
2019-02-15T04:52:42.798Z,99.90
2019-02-15T04:53:48.144Z,99.90
2019-02-15T04:54:53.347Z,99.90
2019-02-15T04:55:58.765Z,99.90
2019-02-15T04:57:03.898Z,99.90
2019-02-15T04:58:09.208Z,99.90
2019-02-15T04:59:14.591Z,99.90
2019-02-15T05:00:19.946Z,99.90
2019-02-15T05:01:25.248Z,99.90
2019-02-15T05:02:30.572Z,99.90
2019-02-15T05:03:35.821Z,99.90
2019-02-15T05:04:41.226Z,99.90
2019-02-15T05:05:46.474Z,99.90
2019-02-15T05:06:51.762Z,99.90
2019-02-15T05:07:56.998Z,99.90
2019-02-15T05:09:02.194Z,99.90
2019-02-15T05:10:09.023Z,99.90
2019-02-15T05:11:14.186Z,99.90
2019-02-15T05:12:19.377Z,99.90
2019-02-15T05:13:24.577Z,99.90
2019-02-15T05:14:29.880Z,99.90
2019-02-15T05:15:35.113Z,99.90
2019-02-15T05:16:40.371Z,99.90
2019-02-15T05:17:45.534Z,99.90
2019-02-15T05:18:50.848Z,99.90
2019-02-15T05:19:56.015Z,99.90
2019-02-15T05:21:01.538Z,99.90
2019-02-15T05:22:06.762Z,99.90
2019-02-15T05:23:11.944Z,99.90
2019-02-15T05:24:17.284Z,99.90
2019-02-15T05:25:22.585Z,99.90
2019-02-15T05:26:27.824Z,99.90
2019-02-15T05:27:33.008Z,99.90
2019-02-15T05:28:38.293Z,99.90
2019-02-15T05:29:43.593Z,99.90
2019-02-15T05:30:48.884Z,99.90
2019-02-15T05:31:54.106Z,99.90
2019-02-15T05:32:59.437Z,99.90
2019-02-15T05:34:04.809Z,99.90
2019-02-15T05:35:10.142Z,99.90
2019-02-15T05:36:15.417Z,99.90
2019-02-15T05:37:20.737Z,99.90
2019-02-15T05:38:26.040Z,99.90
2019-02-15T05:39:31.391Z,99.90
2019-02-15T05:40:36.770Z,99.90
2019-02-15T05:41:41.980Z,99.90
2019-02-15T05:42:47.226Z,99.90
2019-02-15T05:43:52.528Z,99.90
2019-02-15T05:45:03.860Z,99.90
2019-02-15T05:46:04.746Z,99.90
2019-02-15T05:47:10.030Z,99.90
2019-02-15T05:48:15.565Z,99.90
2019-02-15T05:49:21.074Z,99.90
2019-02-15T05:50:26.423Z,99.90
2019-02-15T05:51:31.812Z,99.90
2019-02-15T05:52:37.138Z,99.90
2019-02-15T05:53:42.467Z,99.90
2019-02-15T05:54:48.123Z,99.90
2019-02-15T05:55:53.489Z,99.90
2019-02-15T05:56:58.736Z,99.90
2019-02-15T05:58:03.970Z,99.90
2019-02-15T05:59:09.295Z,99.90
2019-02-15T06:00:14.581Z,99.90
2019-02-15T06:01:21.508Z,99.90
2019-02-15T06:02:26.726Z,99.90
2019-02-15T06:03:32.010Z,99.90
2019-02-15T06:04:37.388Z,99.90
2019-02-15T06:05:42.702Z,99.90
2019-02-15T06:06:48.022Z,99.90
2019-02-15T06:07:53.343Z,99.90
2019-02-15T06:08:58.588Z,99.90
2019-02-15T06:10:03.854Z,99.90
2019-02-15T06:11:09.212Z,99.90
2019-02-15T06:12:14.506Z,99.90
2019-02-15T06:13:19.800Z,99.90
2019-02-15T06:14:25.332Z,99.90
2019-02-15T06:15:30.809Z,99.90
2019-02-15T06:16:36.061Z,99.90
2019-02-15T06:17:41.461Z,99.90
2019-02-15T06:18:47.059Z,99.90
2019-02-15T06:19:52.444Z,99.90
2019-02-15T06:21:05.784Z,99.90
2019-02-15T06:22:27.752Z,99.90
2019-02-15T06:23:50.607Z,99.90
2019-02-15T06:25:12.498Z,99.90
2019-02-15T06:26:25.314Z,99.90
2019-02-15T06:27:47.289Z,99.90
2019-02-15T06:29:08.927Z,99.90
2019-02-15T06:30:20.913Z,99.90
2019-02-15T06:31:27.431Z,99.90
2019-02-15T06:32:33.510Z,99.90
2019-02-15T06:33:38.997Z,99.90
2019-02-15T06:34:44.440Z,99.90
2019-02-15T06:35:49.779Z,99.90
2019-02-15T06:36:55.115Z,99.90
2019-02-15T06:38:00.459Z,99.90
2019-02-15T06:39:08.218Z,99.90
2019-02-15T06:40:13.534Z,99.90
2019-02-15T06:41:18.755Z,99.90
2019-02-15T06:42:24.016Z,99.90
2019-02-15T06:43:29.422Z,99.90
2019-02-15T06:44:34.676Z,99.90
2019-02-15T06:45:39.943Z,99.90
2019-02-15T06:46:45.272Z,99.90
2019-02-15T06:47:50.568Z,99.90
2019-02-15T06:48:55.875Z,99.90
2019-02-15T06:50:01.229Z,99.90
2019-02-15T06:51:06.397Z,99.90
2019-02-15T06:52:11.519Z,99.90
2019-02-15T06:53:16.786Z,99.90
2019-02-15T06:54:22.057Z,99.90
2019-02-15T06:55:27.331Z,99.90
2019-02-15T06:56:32.492Z,99.90
2019-02-15T06:57:37.762Z,99.90
2019-02-15T06:59:03.308Z,99.90
2019-02-15T07:00:27.158Z,99.90
2019-02-15T07:01:40.654Z,99.90
2019-02-15T07:02:54.090Z,99.90
2019-02-15T07:04:33.383Z,99.90
2019-02-15T07:05:38.694Z,99.90
2019-02-15T07:06:43.947Z,99.90
2019-02-15T07:07:49.144Z,99.90
2019-02-15T07:08:54.407Z,99.90
2019-02-15T07:09:59.613Z,99.90
2019-02-15T07:11:04.890Z,99.90
2019-02-15T07:12:10.078Z,99.90
2019-02-15T07:13:15.279Z,99.90
2019-02-15T07:14:20.952Z,99.90
2019-02-15T07:15:33.458Z,99.90
2019-02-15T07:16:36.182Z,99.90
2019-02-15T07:17:41.452Z,99.90
2019-02-15T07:18:46.616Z,99.90
2019-02-15T07:19:51.806Z,99.90
2019-02-15T07:20:56.972Z,99.90
2019-02-15T07:22:02.185Z,99.90
2019-02-15T07:23:07.344Z,99.90
2019-02-15T07:24:12.640Z,99.90
2019-02-15T07:25:17.871Z,99.90
2019-02-15T07:26:23.072Z,99.90
2019-02-15T07:27:28.358Z,99.90
2019-02-15T07:28:33.535Z,99.90
2019-02-15T07:29:38.657Z,99.90
2019-02-15T07:30:43.894Z,99.90
2019-02-15T07:31:49.079Z,99.90
2019-02-15T07:32:54.304Z,99.90
2019-02-15T07:33:59.610Z,99.90
2019-02-15T07:35:05.125Z,99.90
2019-02-15T07:36:10.355Z,99.90
2019-02-15T07:37:15.586Z,99.90
2019-02-15T07:38:20.803Z,99.90
2019-02-15T07:39:25.898Z,99.90
2019-02-15T07:40:31.147Z,99.90
2019-02-15T07:41:36.305Z,99.90
2019-02-15T07:42:41.446Z,99.90
2019-02-15T07:43:46.755Z,99.90
2019-02-15T07:44:51.989Z,99.90
2019-02-15T07:45:57.229Z,99.90
2019-02-15T07:47:02.451Z,99.90
2019-02-15T07:48:07.647Z,99.90
2019-02-15T07:49:12.915Z,99.90
2019-02-15T07:50:18.189Z,99.90
2019-02-15T07:51:23.340Z,99.90
2019-02-15T07:52:28.566Z,99.90
2019-02-15T07:53:33.829Z,99.90
2019-02-15T07:54:39.134Z,99.90
2019-02-15T07:55:44.337Z,99.90
2019-02-15T07:56:49.619Z,99.90
2019-02-15T07:57:54.801Z,99.90
2019-02-15T07:59:00.100Z,99.90
2019-02-15T08:00:06.031Z,99.90
2019-02-15T08:01:11.274Z,99.90
2019-02-15T08:02:16.567Z,99.90
2019-02-15T08:03:21.779Z,99.90
2019-02-15T08:04:27.063Z,99.90
2019-02-15T08:05:32.332Z,99.90
2019-02-15T08:06:37.522Z,99.90
2019-02-15T08:07:42.593Z,99.90
2019-02-15T08:08:48.862Z,99.90
2019-02-15T08:09:54.083Z,99.90
2019-02-15T08:10:59.385Z,99.90
2019-02-15T08:12:04.586Z,99.90
2019-02-15T08:13:09.756Z,99.90
2019-02-15T08:14:17.108Z,99.90
2019-02-15T08:15:21.734Z,99.90
2019-02-15T08:16:27.061Z,99.90
2019-02-15T08:17:32.260Z,99.90
2019-02-15T08:18:37.454Z,99.90
2019-02-15T08:19:42.644Z,99.90
2019-02-15T08:20:48.067Z,99.90
2019-02-15T08:21:53.321Z,99.90
2019-02-15T08:22:58.495Z,99.90
2019-02-15T08:24:03.719Z,99.90
2019-02-15T08:25:09.237Z,99.90
2019-02-15T08:26:14.371Z,99.90
2019-02-15T08:27:19.557Z,99.90
2019-02-15T08:28:24.736Z,99.90
2019-02-15T08:29:30.006Z,99.90
2019-02-15T08:30:35.214Z,99.90
2019-02-15T08:31:40.470Z,99.90
2019-02-15T08:32:45.619Z,99.90
2019-02-15T08:33:50.984Z,99.90
2019-02-15T08:34:56.229Z,99.90
2019-02-15T08:36:01.504Z,99.90
2019-02-15T08:37:06.732Z,99.90
2019-02-15T08:38:11.850Z,99.90
2019-02-15T08:39:17.138Z,99.90
2019-02-15T08:40:22.381Z,99.90
2019-02-15T08:41:27.532Z,99.90
2019-02-15T08:42:32.718Z,98.50
2019-02-15T08:43:37.901Z,95.90
2019-02-15T08:44:43.149Z,98.20
2019-02-15T08:45:48.396Z,96.50
2019-02-15T08:46:53.566Z,98.60
2019-02-15T08:47:58.846Z,98.20
2019-02-15T08:49:04.004Z,98.60
2019-02-15T08:50:09.687Z,96.70
2019-02-15T08:51:14.827Z,95.50
2019-02-15T08:52:21.118Z,93.60
2019-02-15T08:53:26.295Z,90.80
2019-02-15T08:54:31.473Z,86.70
2019-02-15T08:55:36.699Z,87.80
2019-02-15T08:56:41.898Z,90.00
2019-02-15T08:57:47.169Z,91.70
2019-02-15T08:58:52.536Z,89.40
2019-02-15T08:59:57.742Z,90.40
2019-02-15T09:01:03.154Z,92.40
2019-02-15T09:02:22.269Z,90.20
2019-02-15T09:03:27.441Z,87.70
2019-02-15T09:04:32.711Z,88.40
2019-02-15T09:05:37.868Z,87.60
2019-02-15T09:06:43.036Z,85.60
2019-02-15T09:07:48.390Z,88.80
2019-02-15T09:08:53.672Z,84.50
2019-02-15T09:09:58.975Z,82.30
2019-02-15T09:11:04.258Z,81.40
2019-02-15T09:12:09.388Z,79.90
2019-02-15T09:13:14.512Z,79.00
2019-02-15T09:14:19.802Z,79.00
2019-02-15T09:15:25.055Z,79.70
2019-02-15T09:16:30.378Z,82.30
2019-02-15T09:17:35.665Z,81.80
2019-02-15T09:18:41.953Z,81.50
2019-02-15T09:19:47.253Z,81.40
2019-02-15T09:20:52.565Z,80.80
2019-02-15T09:21:57.640Z,80.90
2019-02-15T09:23:02.832Z,80.90
2019-02-15T09:24:08.069Z,81.00
2019-02-15T09:25:13.313Z,82.00
2019-02-15T09:26:18.581Z,82.70
2019-02-15T09:27:29.323Z,82.30
2019-02-15T09:28:38.902Z,84.50
2019-02-15T09:29:44.279Z,83.60
2019-02-15T09:30:52.354Z,83.10
2019-02-15T09:31:57.663Z,84.20
2019-02-15T09:33:02.918Z,85.90
2019-02-15T09:34:08.286Z,81.30
2019-02-15T09:35:13.635Z,82.20
2019-02-15T09:36:18.931Z,79.90
2019-02-15T09:37:24.209Z,79.30
2019-02-15T09:38:29.443Z,81.60
2019-02-15T09:39:34.732Z,79.60
2019-02-15T09:40:39.907Z,79.70
2019-02-15T09:41:45.216Z,80.90
2019-02-15T09:42:50.465Z,81.00
2019-02-15T09:43:55.782Z,79.40
2019-02-15T09:45:01.012Z,77.10
2019-02-15T09:46:06.250Z,77.20
2019-02-15T09:47:12.448Z,76.30
2019-02-15T09:48:17.658Z,77.10
2019-02-15T09:49:24.358Z,76.70
2019-02-15T09:50:29.658Z,76.40
2019-02-15T09:51:34.980Z,75.60
2019-02-15T09:52:40.214Z,75.70
2019-02-15T09:53:45.386Z,74.90
2019-02-15T09:54:50.649Z,74.80
2019-02-15T09:55:55.948Z,75.00
2019-02-15T09:57:01.102Z,73.80
2019-02-15T09:58:06.466Z,74.30
2019-02-15T09:59:11.663Z,74.80
2019-02-15T10:00:16.925Z,74.70
2019-02-15T10:01:22.090Z,75.90
2019-02-15T10:02:27.256Z,74.40
2019-02-15T10:03:32.451Z,73.60
2019-02-15T10:04:37.620Z,73.30
2019-02-15T10:05:42.912Z,74.20
2019-02-15T10:06:48.092Z,73.80
2019-02-15T10:07:53.278Z,72.10
2019-02-15T10:08:58.720Z,72.30
2019-02-15T10:10:04.076Z,71.90
2019-02-15T10:11:09.317Z,72.80
2019-02-15T10:12:14.605Z,72.00
2019-02-15T10:13:19.854Z,72.60
2019-02-15T10:14:25.040Z,71.20
2019-02-15T10:15:31.368Z,70.20
2019-02-15T10:16:36.643Z,69.20
2019-02-15T10:17:41.967Z,69.20
2019-02-15T10:18:47.204Z,70.10
2019-02-15T10:19:52.340Z,70.00
2019-02-15T10:20:57.666Z,70.10
2019-02-15T10:22:02.977Z,70.50
2019-02-15T10:23:08.212Z,71.00
2019-02-15T10:24:13.440Z,70.20
2019-02-15T10:25:18.641Z,71.00
2019-02-15T10:26:23.966Z,71.90
2019-02-15T10:27:29.246Z,72.90
2019-02-15T10:28:34.560Z,72.40
2019-02-15T10:29:39.784Z,72.00
2019-02-15T10:30:44.932Z,72.30
2019-02-15T10:31:50.277Z,72.30
2019-02-15T10:32:55.617Z,72.10
2019-02-15T10:34:00.891Z,71.20
2019-02-15T10:35:06.985Z,69.70
2019-02-15T10:36:12.264Z,69.20
2019-02-15T10:37:17.536Z,69.00
2019-02-15T10:38:22.794Z,69.00
2019-02-15T10:39:27.956Z,69.10
2019-02-15T10:40:33.135Z,68.60
2019-02-15T10:41:38.448Z,68.30
2019-02-15T10:42:43.750Z,67.60
2019-02-15T10:43:49.005Z,66.90
2019-02-15T10:44:54.290Z,67.00
2019-02-15T10:45:59.601Z,67.10
2019-02-15T10:47:13.612Z,66.60
2019-02-15T10:48:11.736Z,66.80
2019-02-15T10:49:16.967Z,65.80
2019-02-15T10:50:22.197Z,65.80
2019-02-15T10:51:27.504Z,66.80
2019-02-15T10:52:33.747Z,66.40
2019-02-15T10:53:38.889Z,65.50
2019-02-15T10:54:44.060Z,64.50
2019-02-15T10:55:49.234Z,64.70
2019-02-15T10:56:54.513Z,64.10
2019-02-15T10:57:59.820Z,63.90
2019-02-15T10:59:05.051Z,64.50
2019-02-15T11:00:15.869Z,64.80
2019-02-15T11:01:22.311Z,64.60
2019-02-15T11:02:27.684Z,63.70
2019-02-15T11:03:32.936Z,62.80
2019-02-15T11:04:38.255Z,62.30
2019-02-15T11:05:43.491Z,62.60
2019-02-15T11:06:48.823Z,62.50
2019-02-15T11:07:54.063Z,62.10
2019-02-15T11:08:59.377Z,60.50
2019-02-15T11:10:04.946Z,61.10
2019-02-15T11:11:10.170Z,61.50
2019-02-15T11:12:15.431Z,60.90
2019-02-15T11:13:20.698Z,60.80
2019-02-15T11:14:25.936Z,60.80
2019-02-15T11:15:31.235Z,61.00
2019-02-15T11:16:36.586Z,60.60
2019-02-15T11:17:41.852Z,60.50
2019-02-15T11:18:47.168Z,61.20
2019-02-15T11:19:52.428Z,60.90
2019-02-15T11:20:57.894Z,61.10
2019-02-15T11:22:03.160Z,60.80
2019-02-15T11:23:08.425Z,59.40
2019-02-15T11:24:13.616Z,59.30
2019-02-15T11:25:18.946Z,60.10
2019-02-15T11:26:24.978Z,60.30
2019-02-15T11:27:30.336Z,61.00
2019-02-15T11:28:35.478Z,61.10
2019-02-15T11:29:40.718Z,60.00
2019-02-15T11:30:45.888Z,60.90
2019-02-15T11:31:51.147Z,60.20
2019-02-15T11:32:56.425Z,59.20
2019-02-15T11:34:01.559Z,58.10
2019-02-15T11:35:09.937Z,57.70
2019-02-15T11:36:15.088Z,56.70
2019-02-15T11:37:21.142Z,56.50
2019-02-15T11:38:26.593Z,57.10
2019-02-15T11:39:31.842Z,56.60
2019-02-15T11:40:37.110Z,56.30
2019-02-15T11:41:42.462Z,55.40
2019-02-15T11:42:48.828Z,55.30
2019-02-15T11:43:54.098Z,55.20
2019-02-15T11:44:59.297Z,56.40
2019-02-15T11:46:04.492Z,56.50
2019-02-15T11:47:09.740Z,56.30
2019-02-15T11:48:15.015Z,55.70
2019-02-15T11:49:20.142Z,56.20
2019-02-15T11:50:28.122Z,56.40
2019-02-15T11:51:33.401Z,55.70
2019-02-15T11:52:38.761Z,55.40
2019-02-15T11:53:44.002Z,56.10
2019-02-15T11:54:49.226Z,55.90
2019-02-15T11:55:55.476Z,56.50
2019-02-15T11:57:00.774Z,56.60
2019-02-15T11:58:06.237Z,55.80
2019-02-15T11:59:11.506Z,55.30
2019-02-15T12:00:22.520Z,54.90
2019-02-15T12:01:26.278Z,55.50
2019-02-15T12:02:31.509Z,55.50
2019-02-15T12:03:36.736Z,56.30
2019-02-15T12:04:41.892Z,56.60
2019-02-15T12:05:50.206Z,56.70
2019-02-15T12:06:55.440Z,56.80
2019-02-15T12:08:00.592Z,55.50
2019-02-15T12:09:06.721Z,55.10
2019-02-15T12:10:13.120Z,54.90
2019-02-15T12:11:18.452Z,56.00
2019-02-15T12:12:23.823Z,56.50
2019-02-15T12:13:29.090Z,55.90
2019-02-15T12:14:34.333Z,55.50
2019-02-15T12:15:39.595Z,55.50
2019-02-15T12:16:44.876Z,55.70
2019-02-15T12:17:50.119Z,55.50
2019-02-15T12:18:55.386Z,56.10
2019-02-15T12:20:00.768Z,56.30
2019-02-15T12:21:06.084Z,56.50
2019-02-15T12:22:11.354Z,57.00
2019-02-15T12:23:16.590Z,58.10
2019-02-15T12:24:21.889Z,57.10
2019-02-15T12:25:27.162Z,56.50
2019-02-15T12:26:32.579Z,55.80
2019-02-15T12:27:37.858Z,55.60
2019-02-15T12:28:43.195Z,54.80
2019-02-15T12:29:48.364Z,54.70
2019-02-15T12:30:53.562Z,54.80
2019-02-15T12:31:58.866Z,55.90
2019-02-15T12:33:04.120Z,55.60
2019-02-15T12:34:09.307Z,56.20
2019-02-15T12:35:14.580Z,56.40
2019-02-15T12:36:19.875Z,55.70
2019-02-15T12:37:25.012Z,56.10
2019-02-15T12:38:31.191Z,55.60
2019-02-15T12:39:36.470Z,54.50
2019-02-15T12:40:41.743Z,54.50
2019-02-15T12:41:47.008Z,54.50
2019-02-15T12:42:52.223Z,54.70
2019-02-15T12:43:57.467Z,55.20
2019-02-15T12:45:02.752Z,55.30
2019-02-15T12:46:08.501Z,56.10
2019-02-15T12:47:15.314Z,56.30
2019-02-15T12:48:20.738Z,56.30
2019-02-15T12:49:26.001Z,56.40
2019-02-15T12:50:31.179Z,56.60
2019-02-15T12:51:36.425Z,56.80
2019-02-15T12:52:41.616Z,57.60
2019-02-15T12:53:46.866Z,56.50
2019-02-15T12:54:52.151Z,56.90
2019-02-15T12:55:57.310Z,57.70
2019-02-15T12:57:02.686Z,56.60
2019-02-15T12:58:07.983Z,56.50
2019-02-15T12:59:13.186Z,57.50
2019-02-15T13:00:18.343Z,57.40
2019-02-15T13:01:23.639Z,56.10
2019-02-15T13:02:28.831Z,56.00
2019-02-15T13:03:34.046Z,55.60
2019-02-15T13:04:39.343Z,55.90
2019-02-15T13:05:44.653Z,56.40
2019-02-15T13:06:49.909Z,57.00
2019-02-15T13:07:55.171Z,56.90
2019-02-15T13:09:00.436Z,57.10
2019-02-15T13:10:09.050Z,56.30
2019-02-15T13:11:14.468Z,56.90
2019-02-15T13:12:19.635Z,56.40
2019-02-15T13:13:26.802Z,55.30
2019-02-15T13:14:31.702Z,55.40
2019-02-15T13:15:37.013Z,55.30
2019-02-15T13:16:42.147Z,55.50
2019-02-15T13:17:47.468Z,56.20
2019-02-15T13:18:52.696Z,56.30
2019-02-15T13:19:57.937Z,55.80
2019-02-15T13:21:03.156Z,56.20
2019-02-15T13:22:08.357Z,56.10
2019-02-15T13:23:13.535Z,56.70
2019-02-15T13:24:18.681Z,57.20
2019-02-15T13:25:23.851Z,57.50
2019-02-15T13:26:29.232Z,57.90
2019-02-15T13:27:34.440Z,57.60
2019-02-15T13:28:39.587Z,57.90
2019-02-15T13:29:44.791Z,58.60
2019-02-15T13:30:50.107Z,58.90
2019-02-15T13:31:55.386Z,59.50
2019-02-15T13:33:00.823Z,59.60
2019-02-15T13:34:06.023Z,60.10
2019-02-15T13:35:12.737Z,67.80
2019-02-15T13:36:19.441Z,63.10
2019-02-15T13:37:24.569Z,62.70
2019-02-15T13:38:29.857Z,64.10
2019-02-15T13:39:35.114Z,63.50
2019-02-15T13:40:40.368Z,63.70
2019-02-15T13:41:45.698Z,64.10
2019-02-15T13:42:50.996Z,66.80
2019-02-15T13:43:58.215Z,64.00
2019-02-15T13:45:03.311Z,60.50
2019-02-15T13:46:08.612Z,63.80
2019-02-15T13:47:13.899Z,63.00
2019-02-15T13:48:19.178Z,61.10
2019-02-15T13:49:24.377Z,60.90
2019-02-15T13:50:29.736Z,60.90
2019-02-15T13:51:34.995Z,59.90
2019-02-15T13:52:40.143Z,59.50
2019-02-15T13:53:45.327Z,59.90
2019-02-15T13:54:50.501Z,60.20
2019-02-15T13:55:55.730Z,60.90
2019-02-15T13:57:00.990Z,61.70
2019-02-15T13:58:06.244Z,61.50
2019-02-15T13:59:11.488Z,59.90
2019-02-15T14:00:16.722Z,59.90
2019-02-15T14:01:22.106Z,59.70
2019-02-15T14:02:27.362Z,59.70
2019-02-15T14:03:32.867Z,61.50
2019-02-15T14:04:38.155Z,59.70
2019-02-15T14:05:43.465Z,60.40
2019-02-15T14:06:54.559Z,60.10
2019-02-15T14:07:59.843Z,59.10
2019-02-15T14:09:05.725Z,59.40
2019-02-15T14:10:12.439Z,59.60
2019-02-15T14:11:17.776Z,60.00
2019-02-15T14:12:23.028Z,60.40
2019-02-15T14:13:28.300Z,60.50
2019-02-15T14:14:33.525Z,59.90
2019-02-15T14:15:38.763Z,60.90
2019-02-15T14:16:44.009Z,60.90
2019-02-15T14:17:49.226Z,61.10
2019-02-15T14:18:54.470Z,60.90